Time;durP1;ratioP1;P1;durP2;ratioP2;P2;SDS_P1;SDS_P2;PMS_P1;PMS_P2;Temp;Humidity;BMP_temperature;BMP_pressure;BME280_temperature;BME280_humidity;BME280_pressure;Samples;Min_cycle;Max_cycle;Signal;HPM_P1;HPM_P2
2024/01/20 00:01:07;;;;;;;;;;;-1.00;99.90;;;;;;5117778;28;19907;-74
2024/01/20 00:03:33;;;;;;;;;;;-1.10;99.90;;;;;;5117568;28;19903;-74
2024/01/20 00:05:58;;;;;;;;;;;-1.10;99.90;;;;;;5117955;28;19908;-74
2024/01/20 00:08:24;;;;;;;;;;;-1.20;99.90;;;;;;5116281;28;19912;-74
2024/01/20 00:10:49;;;;;;;;;;;-1.20;99.90;;;;;;5117735;28;19914;-74
2024/01/20 00:13:15;;;;;;;;;;;-1.20;99.90;;;;;;5116264;28;19904;-74
2024/01/20 00:15:40;;;;;;;;;;;-1.10;99.90;;;;;;5117536;28;19907;-74
2024/01/20 00:18:06;;;;;;;;;;;-1.20;99.90;;;;;;5116793;28;19911;-74
2024/01/20 00:20:31;;;;;;;;;;;-1.20;99.90;;;;;;5117753;28;20004;-74
2024/01/20 00:22:57;;;;;;;;;;;-1.20;99.90;;;;;;5117123;28;20339;-74
2024/01/20 00:25:22;;;;;;;;;;;-1.20;99.90;;;;;;5116204;28;19908;-74
2024/01/20 00:27:51;;;;;;;;;;;-1.20;99.90;;;;;;5117188;28;19966;-74
2024/01/20 00:30:16;;;;;;;;;;;-1.20;99.90;;;;;;5116078;28;20003;-74
2024/01/20 00:32:42;;;;;;;;;;;-1.30;99.90;;;;;;5116959;28;19935;-74
2024/01/20 00:35:07;;;;;;;;;;;-1.30;99.90;;;;;;5117251;28;19911;-74
2024/01/20 00:37:33;;;;;;;;;;;-1.30;99.90;;;;;;5117113;28;19907;-74
2024/01/20 00:39:59;;;;;;;;;;;-1.30;99.90;;;;;;5116903;28;20257;-74
2024/01/20 00:42:24;;;;;;;;;;;-1.30;99.90;;;;;;5114840;28;20068;-74
2024/01/20 00:44:50;;;;;;;;;;;-1.30;99.90;;;;;;5105747;28;19982;-74
2024/01/20 00:47:15;;;;;;;;;;;-1.30;99.90;;;;;;5114349;28;19904;-74
2024/01/20 00:49:41;;;;;;;;;;;-1.30;99.90;;;;;;5117177;28;19911;-74
2024/01/20 00:52:07;;;;;;;;;;;-1.30;99.90;;;;;;5115690;28;19904;-75
2024/01/20 00:54:32;;;;;;;;;;;-1.30;99.90;;;;;;5117024;27;19914;-76
2024/01/20 00:56:58;;;;;;;;;;;-1.40;99.90;;;;;;5115270;28;19960;-76
2024/01/20 00:59:23;;;;;;;;;;;-1.40;99.90;;;;;;5116968;27;19907;-76
2024/01/20 01:01:49;;;;;;;;;;;-1.40;99.90;;;;;;5114014;28;20385;-76
2024/01/20 01:04:14;;;;;;;;;;;-1.40;99.90;;;;;;5105835;28;20375;-76
2024/01/20 01:06:40;;;;;;;;;;;-1.50;99.90;;;;;;5116562;28;19907;-76
2024/01/20 01:09:05;;;;;;;;;;;-1.50;99.90;;;;;;5115216;28;20378;-77
2024/01/20 01:11:31;;;;;;;;;;;-1.50;99.90;;;;;;5115599;28;19904;-76
2024/01/20 01:13:57;;;;;;;;;;;-1.60;99.90;;;;;;5116320;28;19917;-76
2024/01/20 01:16:22;;;;;;;;;;;-1.60;99.90;;;;;;5116022;28;19904;-76
2024/01/20 01:18:48;;;;;;;;;;;-1.60;99.90;;;;;;5116574;28;20001;-76
2024/01/20 01:21:13;;;;;;;;;;;-1.60;99.90;;;;;;5115156;28;19910;-75
2024/01/20 01:23:40;;;;;;;;;;;-1.70;99.90;;;;;;5115171;28;19912;-76
2024/01/20 01:26:05;;;;;;;;;;;-1.70;99.90;;;;;;5116514;28;19903;-75
2024/01/20 01:28:31;;;;;;;;;;;-1.70;99.90;;;;;;5116570;28;19930;-75
2024/01/20 01:30:56;;;;;;;;;;;-1.70;99.90;;;;;;5114823;28;20291;-76
2024/01/20 01:33:22;;;;;;;;;;;-1.60;99.90;;;;;;5113922;28;20317;-75
2024/01/20 01:35:47;;;;;;;;;;;-1.60;99.90;;;;;;5116356;28;20431;-75
2024/01/20 01:38:13;;;;;;;;;;;-1.60;99.90;;;;;;5116293;28;19944;-76
2024/01/20 01:40:38;;;;;;;;;;;-1.60;99.90;;;;;;5116301;28;20398;-76
2024/01/20 01:43:04;;;;;;;;;;;-1.60;99.90;;;;;;5116381;28;19911;-75
2024/01/20 01:45:29;;;;;;;;;;;-1.60;99.90;;;;;;5110749;28;19908;-76
2024/01/20 01:47:55;;;;;;;;;;;-1.60;99.90;;;;;;5114234;28;19970;-77
2024/01/20 01:50:21;;;;;;;;;;;-1.60;99.90;;;;;;5115762;28;20002;-76
2024/01/20 01:52:48;;;;;;;;;;;-1.70;99.90;;;;;;5115922;28;20303;-77
2024/01/20 01:55:15;;;;;;;;;;;-1.70;99.90;;;;;;5115964;28;19915;-77
2024/01/20 01:57:41;;;;;;;;;;;-1.70;99.90;;;;;;5115181;28;19920;-76
2024/01/20 02:00:07;;;;;;;;;;;-1.70;99.90;;;;;;5114606;28;20002;-77
2024/01/20 02:02:32;;;;;;;;;;;-1.70;99.90;;;;;;5115740;28;19954;-77
2024/01/20 02:04:58;;;;;;;;;;;-1.80;99.90;;;;;;5116055;28;19910;-77
2024/01/20 02:07:27;;;;;;;;;;;-1.80;99.90;;;;;;5115731;28;19928;-77
2024/01/20 02:09:52;;;;;;;;;;;-1.80;99.90;;;;;;5114874;28;19908;-77
2024/01/20 02:12:18;;;;;;;;;;;-1.80;99.90;;;;;;5112394;28;19910;-77
2024/01/20 02:14:44;;;;;;;;;;;-1.90;99.90;;;;;;5116962;28;19912;-76
2024/01/20 02:17:10;;;;;;;;;;;-1.90;99.90;;;;;;5111082;28;19911;-77
2024/01/20 02:19:36;;;;;;;;;;;-2.00;99.90;;;;;;5119843;28;19948;-77
2024/01/20 02:22:08;;;;;;;;;;;-2.00;99.90;;;;;;5119747;28;19908;-77
2024/01/20 02:24:34;;;;;;;;;;;-2.00;99.90;;;;;;5119961;27;20394;-76
2024/01/20 02:27:00;;;;;;;;;;;-2.10;99.90;;;;;;5119987;28;19910;-76
2024/01/20 02:29:26;;;;;;;;;;;-2.00;99.90;;;;;;5119787;28;19908;-77
2024/01/20 02:31:51;;;;;;;;;;;-2.00;99.90;;;;;;5116075;28;19998;-77
2024/01/20 02:34:17;;;;;;;;;;;-2.10;99.90;;;;;;5119695;28;20007;-76
2024/01/20 02:36:42;;;;;;;;;;;-2.10;99.90;;;;;;5119547;28;19908;-76
2024/01/20 02:39:08;;;;;;;;;;;-2.10;99.90;;;;;;5119511;28;19907;-76
2024/01/20 02:41:33;;;;;;;;;;;-2.10;99.90;;;;;;5114790;28;19903;-76
2024/01/20 02:43:59;;;;;;;;;;;-2.10;99.90;;;;;;5118167;28;19994;-76
2024/01/20 02:46:24;;;;;;;;;;;-2.10;99.90;;;;;;5119038;28;20322;-76
2024/01/20 02:48:50;;;;;;;;;;;-2.00;99.90;;;;;;5118196;28;20000;-76
2024/01/20 02:51:15;;;;;;;;;;;-2.00;99.90;;;;;;5117441;28;19942;-76
2024/01/20 02:53:41;;;;;;;;;;;-1.90;99.90;;;;;;5119240;28;20017;-76
2024/01/20 02:56:06;;;;;;;;;;;-1.90;99.90;;;;;;5116639;27;19931;-76
2024/01/20 02:58:32;;;;;;;;;;;-1.90;99.90;;;;;;5111984;28;19973;-77
2024/01/20 03:00:58;;;;;;;;;;;-1.90;99.90;;;;;;5116698;28;19914;-77
2024/01/20 03:03:24;;;;;;;;;;;-1.90;99.90;;;;;;5118653;28;20408;-77
2024/01/20 03:05:49;;;;;;;;;;;-1.90;99.90;;;;;;5118252;28;19903;-77
2024/01/20 03:08:15;;;;;;;;;;;-1.90;99.90;;;;;;5118872;28;19918;-76
2024/01/20 03:10:40;;;;;;;;;;;-2.00;99.90;;;;;;5119138;28;19907;-77
2024/01/20 03:13:06;;;;;;;;;;;-2.00;99.90;;;;;;5118896;28;20305;-76
2024/01/20 03:15:31;;;;;;;;;;;-2.00;99.90;;;;;;5115371;28;20006;-76
2024/01/20 03:17:57;;;;;;;;;;;-2.00;99.90;;;;;;5118659;28;20009;-76
2024/01/20 03:20:22;;;;;;;;;;;-2.00;99.90;;;;;;5118620;28;20290;-76
2024/01/20 03:22:48;;;;;;;;;;;-2.10;99.90;;;;;;5118793;27;20390;-76
2024/01/20 03:25:13;;;;;;;;;;;-2.10;99.90;;;;;;5116221;28;20378;-76
2024/01/20 03:27:39;;;;;;;;;;;-2.10;99.90;;;;;;5118154;28;20291;-77
2024/01/20 03:30:05;;;;;;;;;;;-2.10;99.90;;;;;;5118538;28;20291;-76
2024/01/20 03:32:30;;;;;;;;;;;-2.20;99.90;;;;;;5115769;28;20276;-76
2024/01/20 03:34:56;;;;;;;;;;;-2.20;99.90;;;;;;5118425;28;19955;-76
2024/01/20 03:37:21;;;;;;;;;;;-2.30;99.90;;;;;;5118722;28;19910;-75
2024/01/20 03:39:47;;;;;;;;;;;-2.30;99.90;;;;;;5117069;28;19911;-76
2024/01/20 03:42:13;;;;;;;;;;;-2.30;99.90;;;;;;5118360;28;19904;-76
2024/01/20 03:44:38;;;;;;;;;;;-2.30;99.90;;;;;;5118405;28;19907;-75
2024/01/20 03:47:04;;;;;;;;;;;-2.30;99.90;;;;;;5118418;28;19907;-76
2024/01/20 03:49:29;;;;;;;;;;;-2.30;99.90;;;;;;5116790;28;19904;-76
2024/01/20 03:51:55;;;;;;;;;;;-2.30;99.90;;;;;;5118265;28;19907;-76
2024/01/20 03:54:21;;;;;;;;;;;-2.30;99.90;;;;;;5116555;28;20299;-76
2024/01/20 03:56:47;;;;;;;;;;;-2.30;99.90;;;;;;5117970;28;19916;-76
2024/01/20 03:59:12;;;;;;;;;;;-2.40;99.90;;;;;;5117976;28;19964;-76
2024/01/20 04:01:39;;;;;;;;;;;-2.40;99.90;;;;;;5117666;27;19953;-76
2024/01/20 04:04:05;;;;;;;;;;;-2.50;99.90;;;;;;5101743;28;19954;-75
2024/01/20 04:06:33;;;;;;;;;;;-2.50;99.90;;;;;;5102045;28;20387;-76
2024/01/20 04:08:59;;;;;;;;;;;-2.50;99.90;;;;;;5117235;28;19915;-76
2024/01/20 04:11:24;;;;;;;;;;;-2.50;99.90;;;;;;5116443;28;20462;-76
2024/01/20 04:13:50;;;;;;;;;;;-2.50;99.90;;;;;;5117131;28;19908;-76
2024/01/20 04:16:15;;;;;;;;;;;-2.50;99.90;;;;;;5113657;28;19908;-76
2024/01/20 04:18:41;;;;;;;;;;;-2.60;99.90;;;;;;5117359;28;20029;-76
2024/01/20 04:21:07;;;;;;;;;;;-2.60;99.90;;;;;;5102918;28;19913;-76
2024/01/20 04:23:32;;;;;;;;;;;-2.70;99.90;;;;;;5112465;28;19904;-75
2024/01/20 04:25:57;;;;;;;;;;;-2.70;99.90;;;;;;5117566;28;19914;-76
2024/01/20 04:28:23;;;;;;;;;;;-2.60;99.90;;;;;;5115611;28;19904;-76
2024/01/20 04:30:50;;;;;;;;;;;-2.70;99.90;;;;;;5115889;28;19910;-76
2024/01/20 04:33:15;;;;;;;;;;;-2.60;99.90;;;;;;5107586;28;19965;-76
2024/01/20 04:35:41;;;;;;;;;;;-2.60;99.90;;;;;;5117179;28;19915;-75
2024/01/20 04:38:06;;;;;;;;;;;-2.70;99.90;;;;;;5115281;28;19904;-75
2024/01/20 04:40:32;;;;;;;;;;;-2.70;99.90;;;;;;5117092;28;20272;-76
2024/01/20 04:42:57;;;;;;;;;;;-2.70;99.90;;;;;;5117102;28;19903;-75
2024/01/20 04:45:23;;;;;;;;;;;-2.80;99.90;;;;;;5116832;27;19998;-76
2024/01/20 04:47:48;;;;;;;;;;;-2.80;99.90;;;;;;5116775;28;20383;-76
2024/01/20 04:50:14;;;;;;;;;;;-2.90;99.90;;;;;;5116974;28;19903;-76
2024/01/20 04:52:39;;;;;;;;;;;-2.90;99.90;;;;;;5117110;28;19910;-75
2024/01/20 04:55:05;;;;;;;;;;;-2.90;99.90;;;;;;5115395;28;20399;-76
2024/01/20 04:57:30;;;;;;;;;;;-2.90;99.90;;;;;;5115327;28;19927;-76
2024/01/20 04:59:56;;;;;;;;;;;-2.90;99.90;;;;;;5115412;28;19911;-75
2024/01/20 05:02:21;;;;;;;;;;;-2.90;99.90;;;;;;5115317;28;19952;-75
2024/01/20 05:04:47;;;;;;;;;;;-2.90;99.90;;;;;;5115233;28;19946;-76
2024/01/20 05:07:13;;;;;;;;;;;-2.80;99.90;;;;;;5116664;28;19934;-75
2024/01/20 05:09:38;;;;;;;;;;;-2.80;99.90;;;;;;5116514;28;20279;-76
2024/01/20 05:12:04;;;;;;;;;;;-2.90;99.90;;;;;;5115300;28;19907;-75
2024/01/20 05:14:29;;;;;;;;;;;-2.90;99.90;;;;;;5111728;28;19911;-76
2024/01/20 05:16:55;;;;;;;;;;;-2.90;99.90;;;;;;5111257;28;19910;-76
2024/01/20 05:19:20;;;;;;;;;;;-3.00;99.90;;;;;;5114968;28;19907;-75
2024/01/20 05:21:46;;;;;;;;;;;-2.90;99.90;;;;;;5116319;28;19956;-76
2024/01/20 05:24:11;;;;;;;;;;;-2.90;99.90;;;;;;5116448;28;19937;-76
2024/01/20 05:26:38;;;;;;;;;;;-2.90;99.90;;;;;;5116640;28;19908;-76
2024/01/20 05:29:04;;;;;;;;;;;-2.90;99.90;;;;;;5116596;28;19908;-76
2024/01/20 05:31:31;;;;;;;;;;;-2.90;99.90;;;;;;5110702;28;20456;-76
2024/01/20 05:33:57;;;;;;;;;;;-2.90;99.90;;;;;;5114863;28;19907;-75
2024/01/20 05:36:23;;;;;;;;;;;-2.90;99.90;;;;;;5115991;28;19919;-75
2024/01/20 05:38:48;;;;;;;;;;;-2.90;99.90;;;;;;5115951;28;19904;-75
2024/01/20 05:41:14;;;;;;;;;;;-2.90;99.90;;;;;;5116259;28;19911;-75
2024/01/20 05:43:39;;;;;;;;;;;-3.00;99.90;;;;;;5114754;28;19917;-75
2024/01/20 05:46:06;;;;;;;;;;;-3.00;99.90;;;;;;5116065;28;19912;-75
2024/01/20 05:48:32;;;;;;;;;;;-3.00;99.90;;;;;;5116124;28;20390;-76
2024/01/20 05:50:58;;;;;;;;;;;-3.10;99.90;;;;;;5120419;28;19908;-76
2024/01/20 05:53:23;;;;;;;;;;;-3.10;99.90;;;;;;5120342;28;20325;-76
2024/01/20 05:55:49;;;;;;;;;;;-3.10;99.90;;;;;;5120115;28;19955;-76
2024/01/20 05:58:14;;;;;;;;;;;-3.10;99.90;;;;;;5120534;28;19908;-76
2024/01/20 06:00:40;;;;;;;;;;;-3.10;99.90;;;;;;5120120;28;19904;-75
2024/01/20 06:03:06;;;;;;;;;;;-3.10;99.90;;;;;;5120022;28;19904;-75
2024/01/20 06:05:32;;;;;;;;;;;-3.10;99.90;;;;;;5120302;28;20382;-75
2024/01/20 06:07:57;;;;;;;;;;;-3.10;99.90;;;;;;5119782;28;20005;-75
2024/01/20 06:10:23;;;;;;;;;;;-3.20;99.90;;;;;;5120346;28;20010;-75
2024/01/20 06:12:48;;;;;;;;;;;-3.20;99.90;;;;;;5119692;27;20004;-76
2024/01/20 06:15:14;;;;;;;;;;;-3.10;99.90;;;;;;5116983;28;20410;-76
2024/01/20 06:17:39;;;;;;;;;;;-3.20;99.90;;;;;;5118501;28;19903;-76
2024/01/20 06:20:05;;;;;;;;;;;-3.30;99.90;;;;;;5119887;28;19996;-76
2024/01/20 06:22:31;;;;;;;;;;;-3.40;99.90;;;;;;5118380;28;19903;-75
2024/01/20 06:24:57;;;;;;;;;;;-3.50;99.90;;;;;;5119858;28;19911;-75
2024/01/20 06:27:22;;;;;;;;;;;-3.50;99.90;;;;;;5119807;28;19914;-75
2024/01/20 06:29:48;;;;;;;;;;;-3.60;99.90;;;;;;5118459;28;19911;-75
2024/01/20 06:32:13;;;;;;;;;;;-3.70;99.90;;;;;;5113464;28;19908;-76
2024/01/20 06:34:39;;;;;;;;;;;-3.70;99.90;;;;;;5119768;28;19958;-76
2024/01/20 06:37:05;;;;;;;;;;;-3.80;99.90;;;;;;5117893;28;19911;-76
2024/01/20 06:39:30;;;;;;;;;;;-3.80;99.90;;;;;;5119905;28;19903;-76
2024/01/20 06:41:56;;;;;;;;;;;-3.80;99.90;;;;;;5119607;28;19995;-75
2024/01/20 06:44:22;;;;;;;;;;;-3.90;99.90;;;;;;5102276;28;19908;-75
2024/01/20 06:46:48;;;;;;;;;;;-3.90;99.90;;;;;;5098749;28;19918;-75
2024/01/20 06:49:14;;;;;;;;;;;-3.90;99.90;;;;;;5110292;28;20405;-75
2024/01/20 06:51:42;;;;;;;;;;;-3.90;99.90;;;;;;5118782;28;19907;-75
2024/01/20 06:54:08;;;;;;;;;;;-3.90;99.90;;;;;;5118979;28;19911;-75
2024/01/20 06:56:34;;;;;;;;;;;-3.90;99.90;;;;;;5117049;28;19945;-75
2024/01/20 06:58:59;;;;;;;;;;;-3.90;99.90;;;;;;5119333;28;19907;-76
2024/01/20 07:01:25;;;;;;;;;;;-4.00;99.90;;;;;;5118211;27;19904;-75
2024/01/20 07:03:50;;;;;;;;;;;-4.00;99.90;;;;;;5117855;28;19904;-75
2024/01/20 07:06:16;;;;;;;;;;;-4.00;99.90;;;;;;5117766;28;19919;-75
2024/01/20 07:08:42;;;;;;;;;;;-4.00;99.90;;;;;;5119017;28;20279;-76
2024/01/20 07:11:09;;;;;;;;;;;-4.00;99.90;;;;;;5117659;28;19911;-76
2024/01/20 07:13:35;;;;;;;;;;;-4.00;99.90;;;;;;5119048;28;19992;-76
2024/01/20 07:16:07;;;;;;;;;;;-4.00;99.90;;;;;;5108816;28;19943;-75
2024/01/20 07:18:33;;;;;;;;;;;-4.00;99.90;;;;;;5119104;28;19926;-76
2024/01/20 07:20:58;;;;;;;;;;;-4.10;99.90;;;;;;5117269;28;19903;-76
2024/01/20 07:23:24;;;;;;;;;;;-4.00;99.90;;;;;;5118422;28;19914;-76
2024/01/20 07:25:49;;;;;;;;;;;-4.10;99.90;;;;;;5118609;28;20026;-76
2024/01/20 07:28:15;;;;;;;;;;;-4.10;99.90;;;;;;5118693;28;19914;-76
2024/01/20 07:30:40;;;;;;;;;;;-4.10;99.90;;;;;;5116694;28;19915;-76
2024/01/20 07:33:06;;;;;;;;;;;-4.10;99.90;;;;;;5118739;28;19910;-76
2024/01/20 07:35:32;;;;;;;;;;;-4.10;99.90;;;;;;5117199;28;19908;-75
2024/01/20 07:37:57;;;;;;;;;;;-4.10;99.90;;;;;;5116941;28;19903;-75
2024/01/20 07:40:23;;;;;;;;;;;-4.10;99.90;;;;;;5116907;28;19910;-74
2024/01/20 07:42:48;;;;;;;;;;;-4.10;99.90;;;;;;5109412;28;20391;-74
2024/01/20 07:45:14;;;;;;;;;;;-4.10;99.90;;;;;;5093753;28;19934;-74
2024/01/20 07:47:39;;;;;;;;;;;-4.00;99.90;;;;;;5096087;28;19904;-73
2024/01/20 07:50:05;;;;;;;;;;;-4.00;99.90;;;;;;5093498;28;19953;-73
2024/01/20 07:52:30;;;;;;;;;;;-4.00;99.90;;;;;;5103024;28;19966;-75
2024/01/20 07:54:56;;;;;;;;;;;-3.90;99.90;;;;;;5098715;28;19912;-74
2024/01/20 07:57:21;;;;;;;;;;;-3.90;99.90;;;;;;5097038;28;19920;-74
2024/01/20 07:59:47;;;;;;;;;;;-3.80;99.90;;;;;;5093410;28;19908;-74
2024/01/20 08:02:14;;;;;;;;;;;-3.80;99.90;;;;;;5091155;28;20299;-74
2024/01/20 08:04:40;;;;;;;;;;;-3.80;99.90;;;;;;5093242;28;19966;-74
2024/01/20 08:07:05;;;;;;;;;;;-3.70;99.90;;;;;;5093159;28;20390;-74
2024/01/20 08:09:31;;;;;;;;;;;-3.70;99.90;;;;;;5093160;28;19973;-74
2024/01/20 08:11:56;;;;;;;;;;;-3.70;99.90;;;;;;5091226;28;19969;-74
2024/01/20 08:14:22;;;;;;;;;;;-3.60;99.90;;;;;;5095236;28;19946;-74
2024/01/20 08:16:47;;;;;;;;;;;-3.50;99.90;;;;;;5095846;28;19919;-74
2024/01/20 08:19:13;;;;;;;;;;;-3.50;99.90;;;;;;5093075;28;19976;-74
2024/01/20 08:21:39;;;;;;;;;;;-3.40;99.90;;;;;;5092659;28;20391;-73
2024/01/20 08:24:04;;;;;;;;;;;-3.30;99.90;;;;;;5093243;28;19967;-74
2024/01/20 08:26:32;;;;;;;;;;;-3.30;99.90;;;;;;5092383;28;20376;-74
2024/01/20 08:28:58;;;;;;;;;;;-3.20;99.90;;;;;;5091294;28;19930;-73
2024/01/20 08:31:23;;;;;;;;;;;-3.10;99.90;;;;;;5092455;28;19908;-74
2024/01/20 08:33:49;;;;;;;;;;;-3.10;99.90;;;;;;5092554;28;19919;-74
2024/01/20 08:36:15;;;;;;;;;;;-3.00;99.90;;;;;;5091576;28;19931;-74
2024/01/20 08:38:40;;;;;;;;;;;-2.90;99.90;;;;;;5092385;28;19915;-74
2024/01/20 08:41:06;;;;;;;;;;;-2.80;99.90;;;;;;5092679;28;19908;-73
2024/01/20 08:43:32;;;;;;;;;;;-2.80;99.90;;;;;;5092114;28;20371;-74
2024/01/20 08:45:59;;;;;;;;;;;-2.70;99.90;;;;;;5103251;28;20299;-74
2024/01/20 08:48:24;;;;;;;;;;;-2.60;99.90;;;;;;5096696;28;20443;-74
2024/01/20 08:50:50;;;;;;;;;;;-2.60;99.90;;;;;;5092225;28;19991;-75
2024/01/20 08:53:15;;;;;;;;;;;-2.50;99.90;;;;;;5091896;28;19912;-74
2024/01/20 08:55:41;;;;;;;;;;;-2.40;99.90;;;;;;5091996;28;19977;-74
2024/01/20 08:58:06;;;;;;;;;;;-2.30;99.90;;;;;;5092016;28;19949;-74
2024/01/20 09:00:32;;;;;;;;;;;-2.10;99.90;;;;;;5091759;28;19912;-74
2024/01/20 09:02:57;;;;;;;;;;;-2.00;99.90;;;;;;5091802;28;19908;-74
2024/01/20 09:05:23;;;;;;;;;;;-2.00;99.90;;;;;;5092313;28;19962;-75
2024/01/20 09:07:48;;;;;;;;;;;-1.90;99.90;;;;;;5090296;28;19957;-75
2024/01/20 09:10:14;;;;;;;;;;;-1.80;99.90;;;;;;5091864;28;19920;-75
2024/01/20 09:12:39;;;;;;;;;;;-1.80;99.90;;;;;;5098321;28;19908;-75
2024/01/20 09:15:05;;;;;;;;;;;-1.70;99.90;;;;;;5110296;28;19920;-76
2024/01/20 09:17:30;;;;;;;;;;;-1.70;99.90;;;;;;5103415;28;19988;-75
2024/01/20 09:19:56;;;;;;;;;;;-1.70;99.90;;;;;;5091092;28;19947;-76
2024/01/20 09:22:22;;;;;;;;;;;-1.50;99.90;;;;;;5099298;28;20052;-76
2024/01/20 09:24:47;;;;;;;;;;;-1.50;99.90;;;;;;5095824;28;19911;-76
2024/01/20 09:27:13;;;;;;;;;;;-1.40;99.90;;;;;;5103026;28;19912;-76
2024/01/20 09:29:38;;;;;;;;;;;-1.40;99.90;;;;;;5096165;28;19914;-76
2024/01/20 09:32:04;;;;;;;;;;;-1.40;99.90;;;;;;5104811;28;19919;-76
2024/01/20 09:34:30;;;;;;;;;;;-1.40;99.90;;;;;;5093974;28;19912;-76
2024/01/20 09:36:55;;;;;;;;;;;-1.30;99.90;;;;;;5107207;28;19994;-75
2024/01/20 09:39:21;;;;;;;;;;;-1.20;99.90;;;;;;5108984;28;19931;-75
2024/01/20 09:41:47;;;;;;;;;;;-1.20;99.90;;;;;;5107990;28;20263;-75
2024/01/20 09:44:14;;;;;;;;;;;-1.10;99.90;;;;;;5105905;28;20707;-76
2024/01/20 09:46:40;;;;;;;;;;;-0.90;99.90;;;;;;5110872;28;19903;-74
2024/01/20 09:49:06;;;;;;;;;;;-0.90;99.90;;;;;;5105462;28;19903;-74
2024/01/20 09:51:31;;;;;;;;;;;-0.70;99.90;;;;;;5112366;28;19904;-74
2024/01/20 09:54:00;;;;;;;;;;;-0.70;99.90;;;;;;5112421;28;19904;-74
2024/01/20 09:56:26;;;;;;;;;;;-0.60;99.90;;;;;;5110685;28;19915;-74
2024/01/20 09:58:57;;;;;;;;;;;-0.50;99.90;;;;;;5109499;28;19907;-74
2024/01/20 10:01:23;;;;;;;;;;;-0.40;99.90;;;;;;5108502;28;19904;-74
2024/01/20 10:03:49;;;;;;;;;;;-0.40;99.90;;;;;;5108288;28;20041;-74
2024/01/20 10:06:15;;;;;;;;;;;-0.30;99.90;;;;;;5110178;28;19918;-74
2024/01/20 10:08:40;;;;;;;;;;;-0.30;99.90;;;;;;5108716;28;19904;-74
2024/01/20 10:11:06;;;;;;;;;;;-0.20;99.90;;;;;;5108424;28;20272;-74
2024/01/20 10:13:31;;;;;;;;;;;-0.20;99.90;;;;;;5107499;28;20368;-73
2024/01/20 10:15:57;;;;;;;;;;;-0.10;99.90;;;;;;5108871;28;19985;-73
2024/01/20 10:18:23;;;;;;;;;;;0.00;99.90;;;;;;5109075;28;19903;-74
2024/01/20 10:20:48;;;;;;;;;;;0.00;99.90;;;;;;5112913;28;19908;-73
2024/01/20 10:23:14;;;;;;;;;;;0.10;99.90;;;;;;5105070;27;20351;-74
2024/01/20 10:25:39;;;;;;;;;;;0.10;99.90;;;;;;5111289;28;19908;-74
2024/01/20 10:28:07;;;;;;;;;;;0.20;99.90;;;;;;5112332;28;19908;-73
2024/01/20 10:30:32;;;;;;;;;;;0.20;99.90;;;;;;5111996;28;19929;-74
2024/01/20 10:32:59;;;;;;;;;;;0.20;99.90;;;;;;5111734;28;19904;-76
2024/01/20 10:35:24;;;;;;;;;;;0.20;99.90;;;;;;5115180;28;20638;-76
2024/01/20 10:37:50;;;;;;;;;;;0.20;99.90;;;;;;5113102;28;19955;-76
2024/01/20 10:40:16;;;;;;;;;;;0.30;99.90;;;;;;5116179;28;19912;-76
2024/01/20 10:42:55;;;;;;;;;;;0.40;99.90;;;;;;5112670;28;19922;-76
2024/01/20 10:45:22;;;;;;;;;;;0.40;99.90;;;;;;5112593;28;19908;-76
2024/01/20 10:47:47;;;;;;;;;;;0.50;99.90;;;;;;5106317;28;20284;-77
2024/01/20 10:50:13;;;;;;;;;;;0.50;99.90;;;;;;5112595;28;19904;-75
2024/01/20 10:52:38;;;;;;;;;;;0.60;99.90;;;;;;5103008;28;19912;-76
2024/01/20 10:55:05;;;;;;;;;;;0.60;99.90;;;;;;5109561;28;20069;-76
2024/01/20 10:57:33;;;;;;;;;;;0.60;99.90;;;;;;5112181;28;19915;-76
2024/01/20 11:00:00;;;;;;;;;;;0.70;99.90;;;;;;5109634;27;19960;-76
2024/01/20 11:02:25;;;;;;;;;;;0.80;99.90;;;;;;5111212;28;19915;-75
2024/01/20 11:04:51;;;;;;;;;;;0.80;99.90;;;;;;5113180;28;19912;-75
2024/01/20 11:07:20;;;;;;;;;;;0.90;99.90;;;;;;5114861;28;20339;-76
2024/01/20 11:09:53;;;;;;;;;;;0.90;99.90;;;;;;5107424;28;19911;-75
2024/01/20 11:12:20;;;;;;;;;;;1.00;99.90;;;;;;5103417;28;20000;-75
2024/01/20 11:14:50;;;;;;;;;;;1.10;99.90;;;;;;5111339;28;20377;-75
2024/01/20 11:17:17;;;;;;;;;;;1.10;99.90;;;;;;5105682;28;19915;-74
2024/01/20 11:19:43;;;;;;;;;;;1.10;99.90;;;;;;5108588;28;19903;-74
2024/01/20 11:22:27;;;;;;;;;;;1.20;99.90;;;;;;5106996;28;19914;-75
2024/01/20 11:24:54;;;;;;;;;;;1.30;99.90;;;;;;5107692;28;19998;-75
2024/01/20 11:27:19;;;;;;;;;;;1.30;99.90;;;;;;5104856;28;19985;-74
2024/01/20 11:29:45;;;;;;;;;;;1.30;99.90;;;;;;5107794;28;21410;-73
2024/01/20 11:32:10;;;;;;;;;;;1.40;99.90;;;;;;5107896;28;19912;-73
2024/01/20 11:34:36;;;;;;;;;;;1.50;99.90;;;;;;5104180;28;20036;-74
2024/01/20 11:37:01;;;;;;;;;;;1.50;99.90;;;;;;5105975;28;19908;-74
2024/01/20 11:39:27;;;;;;;;;;;1.50;99.90;;;;;;5109009;27;19985;-74
2024/01/20 11:42:03;;;;;;;;;;;1.60;99.90;;;;;;5104887;28;19918;-73
2024/01/20 11:44:31;;;;;;;;;;;1.60;99.90;;;;;;5106254;28;20327;-74
2024/01/20 11:46:59;;;;;;;;;;;1.70;99.90;;;;;;5106416;28;19908;-74
2024/01/20 11:49:25;;;;;;;;;;;1.80;99.90;;;;;;5099316;28;19943;-73
2024/01/20 11:51:51;;;;;;;;;;;1.90;99.90;;;;;;5105447;28;19914;-73
2024/01/20 11:54:16;;;;;;;;;;;1.90;99.90;;;;;;5108810;28;19915;-73
2024/01/20 11:56:42;;;;;;;;;;;1.90;99.90;;;;;;5103216;28;20381;-73
2024/01/20 11:59:07;;;;;;;;;;;2.00;99.90;;;;;;5106364;28;19908;-73
2024/01/20 12:01:33;;;;;;;;;;;2.00;99.90;;;;;;5108516;28;19907;-73
2024/01/20 12:04:00;;;;;;;;;;;2.00;99.90;;;;;;5102330;27;19908;-73
2024/01/20 12:06:25;;;;;;;;;;;2.00;99.90;;;;;;5106067;28;19973;-73
2024/01/20 12:08:51;;;;;;;;;;;2.10;99.90;;;;;;5106833;28;19912;-73
2024/01/20 12:11:18;;;;;;;;;;;2.10;99.90;;;;;;5107843;28;19915;-73
2024/01/20 12:13:44;;;;;;;;;;;2.20;99.90;;;;;;5104296;28;19908;-73
2024/01/20 12:16:10;;;;;;;;;;;2.20;99.90;;;;;;5101975;28;19915;-73
2024/01/20 12:18:35;;;;;;;;;;;2.20;99.90;;;;;;5106557;28;19911;-73
2024/01/20 12:21:01;;;;;;;;;;;2.30;99.90;;;;;;5106988;28;19903;-75
2024/01/20 12:23:27;;;;;;;;;;;2.40;99.90;;;;;;5104859;28;20330;-74
2024/01/20 12:25:55;;;;;;;;;;;2.40;99.90;;;;;;5109690;28;19915;-74
2024/01/20 12:28:21;;;;;;;;;;;2.40;99.90;;;;;;5101917;28;19961;-74
2024/01/20 12:30:46;;;;;;;;;;;2.40;99.90;;;;;;5104404;28;19911;-74
2024/01/20 12:33:12;;;;;;;;;;;2.50;99.90;;;;;;5109770;28;19914;-75
2024/01/20 12:35:37;;;;;;;;;;;2.50;99.90;;;;;;5109079;28;19911;-75
2024/01/20 12:38:03;;;;;;;;;;;2.50;99.90;;;;;;5104299;28;19956;-74
2024/01/20 12:40:29;;;;;;;;;;;2.50;99.90;;;;;;5111674;28;19964;-74
2024/01/20 12:42:55;;;;;;;;;;;2.50;99.90;;;;;;5101623;28;19915;-74
2024/01/20 12:45:21;;;;;;;;;;;2.50;99.90;;;;;;5108977;28;20328;-74
2024/01/20 12:47:47;;;;;;;;;;;2.60;99.90;;;;;;5104141;28;19915;-74
2024/01/20 12:50:12;;;;;;;;;;;2.60;99.90;;;;;;5104440;28;19907;-74
2024/01/20 12:52:38;;;;;;;;;;;2.70;99.90;;;;;;5101790;28;19908;-73
2024/01/20 12:55:05;;;;;;;;;;;2.80;99.90;;;;;;5108866;28;19919;-73
2024/01/20 12:57:30;;;;;;;;;;;2.90;99.90;;;;;;5103338;28;20501;-73
2024/01/20 12:59:56;;;;;;;;;;;3.00;99.90;;;;;;5103490;28;20029;-73
2024/01/20 13:02:22;;;;;;;;;;;3.00;99.90;;;;;;5103821;28;19951;-73
2024/01/20 13:04:47;;;;;;;;;;;3.00;99.90;;;;;;5104829;28;19996;-74
2024/01/20 13:07:13;;;;;;;;;;;3.00;99.90;;;;;;5105625;28;19912;-74
2024/01/20 13:09:38;;;;;;;;;;;3.00;99.90;;;;;;5104280;28;19918;-73
2024/01/20 13:12:05;;;;;;;;;;;3.00;99.90;;;;;;5102811;28;20235;-73
2024/01/20 13:14:31;;;;;;;;;;;3.00;99.90;;;;;;5106104;28;19963;-73
2024/01/20 13:16:57;;;;;;;;;;;3.00;99.90;;;;;;5099867;28;19934;-73
2024/01/20 13:19:22;;;;;;;;;;;3.00;99.90;;;;;;5105371;28;19908;-74
2024/01/20 13:21:48;;;;;;;;;;;3.00;99.90;;;;;;5099672;28;19912;-73
2024/01/20 13:24:14;;;;;;;;;;;2.90;99.90;;;;;;5103179;28;19910;-73
2024/01/20 13:26:39;;;;;;;;;;;2.90;99.90;;;;;;5106985;27;19908;-74
2024/01/20 13:29:05;;;;;;;;;;;2.90;99.90;;;;;;5107283;28;20239;-73
2024/01/20 13:31:31;;;;;;;;;;;2.90;99.90;;;;;;5101733;28;20307;-73
2024/01/20 13:33:57;;;;;;;;;;;3.00;99.90;;;;;;5107279;28;19919;-73
2024/01/20 13:36:22;;;;;;;;;;;3.10;99.90;;;;;;5101873;28;20754;-73
2024/01/20 13:38:48;;;;;;;;;;;3.10;99.90;;;;;;5102773;28;20358;-73
2024/01/20 13:41:15;;;;;;;;;;;3.20;99.90;;;;;;5103755;28;20618;-73
2024/01/20 13:43:40;;;;;;;;;;;3.20;99.90;;;;;;5106037;28;19914;-74
2024/01/20 13:46:06;;;;;;;;;;;3.30;99.90;;;;;;5103676;28;19907;-74
2024/01/20 13:48:31;;;;;;;;;;;3.30;99.90;;;;;;5105884;28;19911;-74
2024/01/20 13:50:57;;;;;;;;;;;3.30;99.90;;;;;;5105267;28;19998;-74
2024/01/20 13:53:24;;;;;;;;;;;3.40;99.90;;;;;;5103873;28;19912;-74
2024/01/20 13:55:49;;;;;;;;;;;3.40;99.90;;;;;;5099334;28;20023;-74
2024/01/20 13:58:15;;;;;;;;;;;3.30;99.90;;;;;;5103332;28;19943;-74
2024/01/20 14:00:41;;;;;;;;;;;3.30;99.90;;;;;;5104236;28;20728;-74
2024/01/20 14:03:06;;;;;;;;;;;3.30;99.90;;;;;;5105994;28;20542;-74
2024/01/20 14:05:32;;;;;;;;;;;3.30;99.90;;;;;;5101911;28;19959;-74
2024/01/20 14:07:57;;;;;;;;;;;3.20;99.90;;;;;;5099648;28;20561;-75
2024/01/20 14:10:23;;;;;;;;;;;3.20;99.90;;;;;;5101992;28;20387;-74
2024/01/20 14:12:48;;;;;;;;;;;3.30;99.90;;;;;;5106584;28;19935;-74